Time;durP1;ratioP1;P1;durP2;ratioP2;P2;SDS_P1;SDS_P2;PMS_P1;PMS_P2;Temp;Humidity;BMP_temperature;BMP_pressure;BME280_temperature;BME280_humidity;BME280_pressure;Samples;Min_cycle;Max_cycle;Signal;HPM_P1;HPM_P2
2021/10/20 00:01:09;;;;;;;8.43;5.57;;;10.70;99.90;;;;;;4994580;28;20042;-77
2021/10/20 00:03:35;;;;;;;7.57;5.63;;;10.70;99.90;;;;;;4999312;28;20074;-79
2021/10/20 00:06:01;;;;;;;9.63;5.95;;;10.80;99.90;;;;;;4998877;28;20027;-79
2021/10/20 00:08:26;;;;;;;7.47;5.75;;;10.80;99.90;;;;;;4998904;28;20031;-77
2021/10/20 00:10:52;;;;;;;6.75;5.72;;;10.70;99.90;;;;;;4996835;28;20026;-77
2021/10/20 00:13:18;;;;;;;6.32;5.28;;;10.80;99.90;;;;;;4994926;28;20034;-76
2021/10/20 00:15:44;;;;;;;7.43;5.85;;;10.70;99.90;;;;;;4991120;28;20031;-76
2021/10/20 00:18:10;;;;;;;8.43;5.50;;;10.60;99.90;;;;;;4991235;28;20031;-76
2021/10/20 00:20:35;;;;;;;6.22;5.63;;;10.70;99.90;;;;;;4991769;28;20165;-76
2021/10/20 00:23:01;;;;;;;6.22;4.75;;;10.70;99.90;;;;;;4991550;28;20043;-76
2021/10/20 00:25:27;;;;;;;6.05;5.45;;;10.80;99.90;;;;;;5000827;28;20026;-77
2021/10/20 00:27:52;;;;;;;7.72;5.63;;;10.80;99.90;;;;;;4983533;28;20062;-76
2021/10/20 00:30:18;;;;;;;7.25;5.78;;;10.70;99.90;;;;;;4986533;28;20026;-75
2021/10/20 00:32:44;;;;;;;6.57;5.50;;;10.70;99.90;;;;;;4993063;28;20031;-76
2021/10/20 00:35:10;;;;;;;5.93;5.32;;;10.70;99.90;;;;;;5003009;28;20027;-76
2021/10/20 00:37:36;;;;;;;9.43;6.25;;;10.70;99.90;;;;;;4978098;28;20102;-76
2021/10/20 00:40:04;;;;;;;6.90;5.88;;;10.60;99.90;;;;;;4977954;28;20499;-76
2021/10/20 00:42:29;;;;;;;7.35;4.97;;;10.50;99.90;;;;;;4985966;28;20099;-76
2021/10/20 00:44:58;;;;;;;5.47;4.88;;;10.50;99.90;;;;;;4986416;28;20659;-76
2021/10/20 00:47:25;;;;;;;9.38;6.10;;;10.40;99.90;;;;;;4985447;28;20023;-76
2021/10/20 00:49:52;;;;;;;5.97;5.32;;;10.40;99.90;;;;;;5015732;28;20097;-76
2021/10/20 00:52:20;;;;;;;10.93;5.85;;;10.40;99.90;;;;;;4996968;28;20034;-76
2021/10/20 00:54:46;;;;;;;9.05;5.65;;;10.30;99.90;;;;;;4975598;28;20102;-77
2021/10/20 00:57:12;;;;;;;7.50;6.00;;;10.30;99.90;;;;;;4983604;28;20030;-76
2021/10/20 00:59:39;;;;;;;7.93;5.03;;;10.20;99.90;;;;;;4996629;28;20046;-77
2021/10/20 01:02:06;;;;;;;6.68;5.65;;;10.20;99.90;;;;;;4997483;28;20078;-76
2021/10/20 01:04:32;;;;;;;5.85;5.25;;;10.10;99.90;;;;;;4987852;28;20069;-76
2021/10/20 01:06:57;;;;;;;7.07;5.47;;;10.00;99.90;;;;;;4995165;28;20524;-77
2021/10/20 01:09:23;;;;;;;6.03;4.90;;;10.00;99.90;;;;;;4993034;28;20034;-77
2021/10/20 01:11:49;;;;;;;5.88;5.28;;;10.00;99.90;;;;;;4987452;28;20055;-76
2021/10/20 01:14:15;;;;;;;7.30;6.28;;;10.00;99.90;;;;;;4986580;28;20027;-77
2021/10/20 01:16:42;;;;;;;5.97;5.20;;;9.90;99.90;;;;;;4986644;28;20031;-76
2021/10/20 01:19:08;;;;;;;6.32;5.68;;;9.90;99.90;;;;;;4988337;28;20040;-75
2021/10/20 01:21:34;;;;;;;8.20;6.10;;;9.90;99.90;;;;;;4982017;28;20046;-77
2021/10/20 01:24:00;;;;;;;6.32;5.60;;;9.80;99.90;;;;;;5002415;28;20026;-77
2021/10/20 01:26:27;;;;;;;15.05;5.82;;;9.80;99.90;;;;;;5014707;28;20079;-76
2021/10/20 01:28:53;;;;;;;6.70;6.00;;;9.70;99.90;;;;;;4997734;28;20045;-77
2021/10/20 01:31:19;;;;;;;6.93;6.22;;;9.80;99.90;;;;;;4993019;28;20069;-75
2021/10/20 01:33:45;;;;;;;7.13;6.00;;;9.70;99.90;;;;;;4988124;28;20023;-77
2021/10/20 01:36:10;;;;;;;7.70;5.60;;;9.70;99.90;;;;;;4974984;28;20030;-76
2021/10/20 01:38:37;;;;;;;6.18;5.55;;;9.60;99.90;;;;;;4977176;28;20066;-76
2021/10/20 01:41:02;;;;;;;7.50;6.57;;;9.60;99.90;;;;;;4983027;28;20034;-76
2021/10/20 01:43:45;;;;;;;6.60;5.75;;;9.60;99.90;;;;;;4980625;28;20046;-75
2021/10/20 01:46:20;;;;;;;7.80;6.25;;;9.60;99.90;;;;;;4975296;28;20022;-76
2021/10/20 01:48:47;;;;;;;8.05;5.80;;;9.60;99.90;;;;;;4977146;28;20081;-76
2021/10/20 01:51:13;;;;;;;8.60;5.63;;;9.60;99.90;;;;;;4976859;28;20023;-76
2021/10/20 01:53:39;;;;;;;5.97;5.38;;;9.50;99.90;;;;;;4976944;28;20037;-76
2021/10/20 01:56:06;;;;;;;8.50;6.40;;;9.50;99.90;;;;;;4976087;28;20026;-76
2021/10/20 01:58:32;;;;;;;6.88;5.60;;;9.50;99.90;;;;;;4975983;28;20451;-76
2021/10/20 02:00:57;;;;;;;6.95;5.50;;;9.50;99.90;;;;;;4975867;28;20027;-76
2021/10/20 02:03:27;;;;;;;11.00;5.55;;;9.50;99.90;;;;;;4975465;28;20030;-76
2021/10/20 02:05:56;;;;;;;7.25;5.70;;;9.70;99.90;;;;;;4984022;28;20110;-75
2021/10/20 02:08:22;;;;;;;7.00;5.45;;;9.70;99.90;;;;;;4991919;28;20034;-77
2021/10/20 02:10:50;;;;;;;7.05;5.43;;;9.70;99.90;;;;;;4979312;28;20560;-76
2021/10/20 02:13:15;;;;;;;6.40;5.72;;;9.70;99.90;;;;;;4988392;28;20045;-75
2021/10/20 02:15:41;;;;;;;7.32;5.60;;;9.80;99.90;;;;;;4983123;28;20030;-75
2021/10/20 02:18:07;;;;;;;6.22;5.63;;;9.80;99.90;;;;;;4987472;28;20449;-76
2021/10/20 02:20:32;;;;;;;7.43;5.20;;;9.70;99.90;;;;;;4986155;28;20391;-75
2021/10/20 02:22:58;;;;;;;6.70;5.43;;;9.80;99.90;;;;;;4994203;28;20031;-76
2021/10/20 02:25:24;;;;;;;6.00;5.40;;;9.80;99.90;;;;;;4986228;28;20073;-75
2021/10/20 02:27:50;;;;;;;7.35;5.45;;;9.70;99.90;;;;;;4979309;28;20533;-75
2021/10/20 02:30:16;;;;;;;8.40;5.05;;;9.80;99.90;;;;;;4995983;28;20066;-76
2021/10/20 02:32:42;;;;;;;5.32;4.70;;;9.90;99.90;;;;;;5015268;28;20035;-77
2021/10/20 02:35:09;;;;;;;5.50;4.97;;;10.00;99.90;;;;;;4997365;28;20027;-76
2021/10/20 02:37:35;;;;;;;8.77;5.13;;;10.00;99.90;;;;;;4989287;28;20086;-76
2021/10/20 02:40:01;;;;;;;5.95;5.35;;;10.10;99.90;;;;;;4991922;28;20432;-75
2021/10/20 02:42:27;;;;;;;6.22;5.47;;;10.10;99.90;;;;;;4985378;28;20114;-76
2021/10/20 02:44:52;;;;;;;5.35;4.85;;;10.00;99.90;;;;;;4987508;28;20513;-76
2021/10/20 02:47:18;;;;;;;7.40;5.05;;;10.00;99.90;;;;;;4988650;28;20587;-76
2021/10/20 02:49:43;;;;;;;5.78;5.22;;;9.90;99.90;;;;;;4991324;28;20037;-76
2021/10/20 02:52:09;;;;;;;6.68;5.60;;;9.90;99.90;;;;;;4984993;28;20085;-75
2021/10/20 02:54:35;;;;;;;6.32;5.65;;;10.00;99.90;;;;;;4994468;28;20041;-75
2021/10/20 02:57:01;;;;;;;6.80;5.70;;;10.00;99.90;;;;;;5003746;28;20418;-75
2021/10/20 02:59:27;;;;;;;7.72;5.35;;;10.10;99.90;;;;;;5001555;28;20034;-75
2021/10/20 03:01:53;;;;;;;5.85;5.22;;;10.10;99.90;;;;;;4999149;28;20032;-76
2021/10/20 03:04:18;;;;;;;8.73;5.63;;;10.00;99.90;;;;;;4997160;28;20031;-75
2021/10/20 03:06:44;;;;;;;7.30;5.43;;;10.00;99.90;;;;;;4996267;28;20053;-76
2021/10/20 03:09:10;;;;;;;6.80;5.75;;;9.90;99.90;;;;;;4988610;28;20070;-75
2021/10/20 03:11:35;;;;;;;6.80;5.22;;;9.90;99.90;;;;;;4999883;28;20490;-77
2021/10/20 03:14:01;;;;;;;6.75;4.88;;;10.00;99.90;;;;;;4988928;28;20114;-76
2021/10/20 03:16:26;;;;;;;7.68;5.50;;;9.90;99.90;;;;;;5005073;28;20135;-76
2021/10/20 03:18:53;;;;;;;6.78;5.40;;;9.90;99.90;;;;;;5005672;28;20037;-76
2021/10/20 03:21:18;;;;;;;8.82;6.32;;;9.80;99.90;;;;;;4990933;28;20045;-76
2021/10/20 03:23:44;;;;;;;12.38;7.50;;;9.70;99.90;;;;;;4989109;28;20121;-76
2021/10/20 03:26:09;;;;;;;6.57;5.18;;;9.60;99.90;;;;;;4987752;28;20037;-76
2021/10/20 03:28:35;;;;;;;6.85;5.85;;;9.50;99.90;;;;;;4998172;28;20066;-76
2021/10/20 03:31:00;;;;;;;8.18;5.55;;;9.50;99.90;;;;;;5011128;28;20033;-76
2021/10/20 03:33:26;;;;;;;8.18;5.65;;;9.40;99.90;;;;;;4996823;28;20501;-76
2021/10/20 03:35:51;;;;;;;7.15;6.05;;;9.40;99.90;;;;;;4994487;28;20497;-76
2021/10/20 03:38:17;;;;;;;7.57;5.45;;;9.40;99.90;;;;;;4995143;28;20573;-76
2021/10/20 03:40:42;;;;;;;6.47;5.75;;;9.30;99.90;;;;;;4984165;28;20034;-76
2021/10/20 03:43:08;;;;;;;10.07;6.28;;;9.40;99.90;;;;;;4989896;28;20061;-76
2021/10/20 03:45:33;;;;;;;8.25;6.60;;;9.30;99.90;;;;;;4985576;28;20081;-76
2021/10/20 03:47:59;;;;;;;9.07;6.32;;;9.30;99.90;;;;;;4997615;28;20467;-76
2021/10/20 03:50:25;;;;;;;6.10;5.53;;;9.20;99.90;;;;;;4987489;28;20026;-76
2021/10/20 03:52:50;;;;;;;9.63;6.82;;;9.10;99.90;;;;;;4989961;28;20040;-76
2021/10/20 03:55:16;;;;;;;8.20;5.90;;;9.10;99.90;;;;;;4990571;28;20034;-77
2021/10/20 03:57:42;;;;;;;8.85;6.72;;;9.10;99.90;;;;;;4979849;28;20022;-74
2021/10/20 04:00:10;;;;;;;9.63;6.72;;;9.10;99.90;;;;;;4991932;28;20027;-76
2021/10/20 04:02:36;;;;;;;9.82;6.47;;;9.10;99.90;;;;;;4988159;28;20027;-76
2021/10/20 04:05:02;;;;;;;10.02;7.03;;;9.10;99.90;;;;;;4995999;28;20026;-76
2021/10/20 04:07:28;;;;;;;9.23;6.25;;;9.10;99.90;;;;;;4987405;28;20045;-76
2021/10/20 04:09:53;;;;;;;7.65;5.95;;;9.10;99.90;;;;;;4994005;28;20030;-76
2021/10/20 04:12:19;;;;;;;7.03;5.80;;;9.10;99.90;;;;;;5010893;28;20031;-75
2021/10/20 04:14:45;;;;;;;7.45;5.68;;;9.10;99.90;;;;;;5002453;28;20026;-75
2021/10/20 04:17:10;;;;;;;8.38;6.40;;;9.20;99.90;;;;;;5015298;22;20045;-77
2021/10/20 04:19:36;;;;;;;7.63;6.10;;;9.20;99.90;;;;;;5014169;28;20067;-77
2021/10/20 04:22:02;;;;;;;9.43;6.60;;;9.20;99.90;;;;;;5014287;28;20028;-77
2021/10/20 04:24:27;;;;;;;9.13;6.90;;;9.20;99.90;;;;;;5020366;28;20033;-77
2021/10/20 04:26:53;;;;;;;7.10;6.18;;;9.20;99.90;;;;;;5021144;28;20030;-77
2021/10/20 04:29:18;;;;;;;9.32;6.78;;;9.20;99.90;;;;;;5019748;28;20029;-77
2021/10/20 04:31:45;;;;;;;7.38;5.60;;;9.20;99.90;;;;;;5021263;28;20381;-76
2021/10/20 04:34:10;;;;;;;9.15;6.28;;;9.10;99.90;;;;;;5020420;28;20077;-76
2021/10/20 04:36:36;;;;;;;10.25;6.63;;;9.10;99.90;;;;;;5013009;28;20038;-77
2021/10/20 04:39:02;;;;;;;6.80;6.10;;;9.10;99.90;;;;;;5013757;28;20108;-77
2021/10/20 04:41:28;;;;;;;11.63;6.53;;;9.20;99.90;;;;;;5015052;28;20129;-77
2021/10/20 04:43:53;;;;;;;8.68;5.85;;;9.20;99.90;;;;;;5013874;28;20540;-76
2021/10/20 04:46:19;;;;;;;7.45;5.50;;;9.20;99.90;;;;;;5014809;28;20030;-77
2021/10/20 04:48:45;;;;;;;8.75;6.85;;;9.10;99.90;;;;;;5014932;28;20038;-77
2021/10/20 04:51:10;;;;;;;10.38;7.47;;;9.10;99.90;;;;;;5014325;28;20026;-77
2021/10/20 04:53:38;;;;;;;10.05;7.20;;;9.10;99.90;;;;;;5014967;28;20108;-76
2021/10/20 04:56:04;;;;;;;10.35;6.25;;;9.10;99.90;;;;;;5013930;28;20046;-77
2021/10/20 04:58:29;;;;;;;10.15;6.80;;;9.10;99.90;;;;;;5013058;28;20034;-77
2021/10/20 05:00:55;;;;;;;11.15;7.15;;;9.10;99.90;;;;;;5011961;28;20080;-76
2021/10/20 05:03:20;;;;;;;8.02;6.78;;;9.10;99.90;;;;;;5030103;28;20105;-76
2021/10/20 05:05:46;;;;;;;11.60;6.90;;;9.10;99.90;;;;;;5014059;28;20022;-77
2021/10/20 05:08:12;;;;;;;8.55;7.07;;;9.10;99.90;;;;;;5009117;28;20097;-78
2021/10/20 05:10:38;;;;;;;8.95;6.43;;;9.10;99.90;;;;;;5013441;28;20022;-76
2021/10/20 05:13:04;;;;;;;7.75;5.22;;;9.00;99.90;;;;;;5008171;28;20053;-77
2021/10/20 05:15:30;;;;;;;9.70;5.95;;;9.10;99.90;;;;;;5011802;28;20486;-77
2021/10/20 05:17:55;;;;;;;7.25;5.47;;;9.10;99.90;;;;;;5012315;28;20146;-77
2021/10/20 05:20:21;;;;;;;9.07;5.90;;;9.20;99.90;;;;;;5013543;28;20097;-77
2021/10/20 05:22:47;;;;;;;7.82;5.18;;;9.20;99.90;;;;;;5013475;28;20034;-78
2021/10/20 05:25:15;;;;;;;6.95;5.95;;;9.20;99.90;;;;;;5014203;28;20099;-76
2021/10/20 05:27:41;;;;;;;7.25;5.50;;;9.20;99.90;;;;;;5013662;28;20025;-77
2021/10/20 05:30:07;;;;;;;10.52;5.82;;;9.20;99.90;;;;;;5025126;28;20171;-77
2021/10/20 05:32:33;;;;;;;6.75;6.13;;;9.20;99.90;;;;;;5013319;28;20045;-78
2021/10/20 05:34:58;;;;;;;10.68;6.22;;;9.10;99.90;;;;;;5015764;28;20026;-77
2021/10/20 05:37:25;;;;;;;11.82;6.65;;;9.10;99.90;;;;;;5013623;28;20538;-76
2021/10/20 05:39:52;;;;;;;9.82;7.32;;;9.00;99.90;;;;;;5004645;28;20022;-77
2021/10/20 05:42:18;;;;;;;9.15;6.90;;;9.00;99.90;;;;;;5011921;28;20125;-76
2021/10/20 05:44:44;;;;;;;9.77;6.50;;;8.90;99.90;;;;;;5013039;28;20088;-77
2021/10/20 05:47:10;;;;;;;13.05;6.47;;;8.90;99.90;;;;;;5011478;28;20490;-77
2021/10/20 05:49:35;;;;;;;12.48;7.50;;;8.80;99.90;;;;;;5005962;28;20022;-77
2021/10/20 05:52:01;;;;;;;12.07;8.00;;;8.80;99.90;;;;;;5006062;28;20087;-77
2021/10/20 05:54:27;;;;;;;8.85;6.47;;;8.80;99.90;;;;;;4996573;28;20026;-77
2021/10/20 05:56:52;;;;;;;20.48;7.13;;;8.70;99.90;;;;;;5022734;28;20040;-77
2021/10/20 05:59:22;;;;;;;7.45;6.32;;;8.80;99.90;;;;;;5011037;28;20449;-76
2021/10/20 06:01:49;;;;;;;8.63;6.13;;;8.80;99.90;;;;;;5005488;28;20179;-76
2021/10/20 06:04:15;;;;;;;11.30;7.70;;;8.80;99.90;;;;;;5013086;28;20079;-76
2021/10/20 06:06:41;;;;;;;9.85;7.00;;;8.80;99.90;;;;;;5009547;28;20030;-76
2021/10/20 06:09:07;;;;;;;12.57;6.97;;;8.80;99.90;;;;;;5002219;28;20026;-77
2021/10/20 06:11:33;;;;;;;10.80;6.63;;;8.80;99.90;;;;;;4998652;28;20034;-76
2021/10/20 06:13:58;;;;;;;9.82;7.65;;;8.80;99.90;;;;;;5006307;28;20434;-77
2021/10/20 06:16:24;;;;;;;10.85;7.40;;;8.80;99.90;;;;;;5004404;28;21746;-77
2021/10/20 06:18:50;;;;;;;14.73;8.50;;;8.80;99.90;;;;;;5003060;28;20034;-78
2021/10/20 06:21:15;;;;;;;13.57;9.60;;;9.00;99.90;;;;;;5011145;28;20021;-75
2021/10/20 06:23:41;;;;;;;13.10;9.73;;;9.00;99.90;;;;;;5005846;28;20122;-77
2021/10/20 06:26:07;;;;;;;9.75;7.82;;;9.10;99.90;;;;;;5028298;28;20036;-77
2021/10/20 06:28:33;;;;;;;9.95;7.10;;;9.20;99.90;;;;;;5014784;28;20022;-76
2021/10/20 06:30:58;;;;;;;9.05;6.80;;;9.40;99.90;;;;;;5029661;28;20029;-76
2021/10/20 06:33:24;;;;;;;9.45;6.47;;;9.40;99.90;;;;;;5034126;28;20054;-76
2021/10/20 06:35:49;;;;;;;11.60;6.25;;;9.50;99.90;;;;;;5032999;28;20056;-77
2021/10/20 06:38:15;;;;;;;8.57;6.70;;;9.60;99.90;;;;;;5030995;28;20014;-77
2021/10/20 06:40:40;;;;;;;9.10;6.60;;;9.60;99.90;;;;;;5034569;28;20041;-77
2021/10/20 06:43:06;;;;;;;14.75;11.10;;;9.60;99.90;;;;;;5035912;28;20042;-77
2021/10/20 06:45:32;;;;;;;13.85;8.73;;;9.70;99.90;;;;;;5036215;28;20093;-77
2021/10/20 06:47:57;;;;;;;13.95;8.93;;;9.80;99.90;;;;;;5035890;28;20022;-78
2021/10/20 06:50:23;;;;;;;10.88;6.70;;;9.80;99.90;;;;;;5019455;28;20470;-77
2021/10/20 06:52:49;;;;;;;9.32;6.60;;;9.90;99.90;;;;;;5015223;28;20018;-76
2021/10/20 06:55:14;;;;;;;13.00;6.93;;;10.00;99.90;;;;;;5017327;28;20030;-77
2021/10/20 06:57:41;;;;;;;13.70;9.45;;;10.10;99.90;;;;;;5031746;28;20018;-76
2021/10/20 07:00:08;;;;;;;10.40;6.10;;;10.20;99.90;;;;;;5017057;28;20029;-76
2021/10/20 07:02:35;;;;;;;8.90;5.90;;;10.40;99.90;;;;;;5017649;28;20117;-77
2021/10/20 07:05:01;;;;;;;14.73;6.00;;;10.60;99.90;;;;;;5018947;28;20026;-77
2021/10/20 07:07:28;;;;;;;7.10;5.88;;;10.70;99.90;;;;;;5018674;28;20030;-77
2021/10/20 07:09:54;;;;;;;11.30;6.13;;;10.90;99.90;;;;;;5016054;28;20030;-77
2021/10/20 07:12:20;;;;;;;9.98;5.07;;;11.00;99.90;;;;;;5011957;28;20026;-77
2021/10/20 07:14:46;;;;;;;11.77;5.75;;;11.20;99.90;;;;;;5020147;28;20037;-77
2021/10/20 07:17:12;;;;;;;13.43;5.97;;;11.30;99.90;;;;;;5022289;28;20116;-76
2021/10/20 07:19:38;;;;;;;7.05;4.93;;;11.40;99.90;;;;;;5018126;28;20520;-77
2021/10/20 07:22:06;;;;;;;9.57;5.50;;;11.50;99.90;;;;;;5017506;28;20512;-77
2021/10/20 07:24:32;;;;;;;6.13;5.38;;;11.50;99.90;;;;;;5016740;28;20486;-76
2021/10/20 07:26:57;;;;;;;6.55;4.75;;;11.70;99.90;;;;;;5013989;28;20113;-78
2021/10/20 07:29:23;;;;;;;5.05;4.55;;;11.90;99.90;;;;;;5031470;28;20041;-76
2021/10/20 07:31:49;;;;;;;7.30;4.72;;;11.90;99.90;;;;;;5016498;28;20494;-77
2021/10/20 07:34:14;;;;;;;6.38;4.03;;;12.20;99.90;;;;;;5016117;28;20026;-76
2021/10/20 07:36:42;;;;;;;5.80;4.15;;;12.40;99.90;;;;;;5015220;28;20033;-76
2021/10/20 07:39:08;;;;;;;10.25;3.92;;;12.70;99.90;;;;;;5013938;28;20041;-75
2021/10/20 07:41:34;;;;;;;5.63;4.45;;;13.00;99.90;;;;;;5014035;28;20040;-76
2021/10/20 07:44:00;;;;;;;5.43;3.70;;;13.10;99.90;;;;;;5016246;28;20343;-76
2021/10/20 07:46:26;;;;;;;4.47;3.88;;;13.20;99.90;;;;;;5014921;28;20038;-78
2021/10/20 07:48:52;;;;;;;5.10;3.95;;;13.40;99.90;;;;;;5015630;28;20021;-78
2021/10/20 07:51:17;;;;;;;4.43;3.72;;;13.50;99.90;;;;;;5013881;28;20026;-76
2021/10/20 07:53:43;;;;;;;5.30;4.47;;;13.60;99.90;;;;;;5015121;28;20060;-76
2021/10/20 07:56:08;;;;;;;8.52;5.05;;;13.80;99.90;;;;;;5015530;28;20386;-77
2021/10/20 07:58:35;;;;;;;6.28;3.95;;;13.70;99.90;;;;;;5015960;28;20038;-76
2021/10/20 08:01:01;;;;;;;6.60;4.05;;;13.80;99.90;;;;;;5015982;28;20033;-77
2021/10/20 08:03:28;;;;;;;4.88;3.58;;;13.90;99.90;;;;;;5015895;28;20038;-76
2021/10/20 08:05:54;;;;;;;5.65;4.05;;;13.90;99.90;;;;;;5011532;28;20045;-75
2021/10/20 08:08:19;;;;;;;6.00;3.13;;;13.90;99.90;;;;;;5027782;28;20026;-77
2021/10/20 08:10:45;;;;;;;6.45;3.83;;;14.20;99.90;;;;;;5014680;28;20025;-77
2021/10/20 08:13:11;;;;;;;5.97;4.05;;;14.30;99.90;;;;;;5015378;28;20034;-77
2021/10/20 08:15:39;;;;;;;5.88;4.05;;;14.50;99.90;;;;;;5015515;28;20057;-78
2021/10/20 08:18:06;;;;;;;5.45;3.65;;;14.60;99.90;;;;;;5009889;28;20030;-78
2021/10/20 08:20:34;;;;;;;4.95;4.00;;;14.80;99.90;;;;;;5012059;28;20379;-76
2021/10/20 08:23:00;;;;;;;5.95;3.60;;;14.90;99.90;;;;;;5023348;28;20026;-77
2021/10/20 08:25:26;;;;;;;10.52;4.35;;;15.10;99.90;;;;;;5022129;28;20037;-78
2021/10/20 08:27:52;;;;;;;8.52;4.60;;;15.20;99.90;;;;;;5018200;28;20029;-76
2021/10/20 08:30:18;;;;;;;5.45;3.72;;;15.30;99.90;;;;;;5017180;28;20026;-76
2021/10/20 08:32:49;;;;;;;8.55;4.70;;;15.50;99.90;;;;;;5018086;28;20030;-76
2021/10/20 08:35:16;;;;;;;8.40;4.13;;;15.70;99.90;;;;;;5016079;28;20030;-77
2021/10/20 08:37:47;;;;;;;5.10;4.70;;;15.70;99.90;;;;;;5011063;28;20033;-78
2021/10/20 08:40:13;;;;;;;8.50;4.15;;;15.60;99.90;;;;;;5017016;28;20030;-77
2021/10/20 08:42:40;;;;;;;10.50;4.63;;;15.90;99.90;;;;;;5014275;28;20029;-78
2021/10/20 08:45:08;;;;;;;11.15;4.70;;;15.90;99.90;;;;;;5016300;28;20075;-78
2021/10/20 08:47:35;;;;;;;8.27;4.63;;;15.70;99.90;;;;;;5020572;28;20041;-76
2021/10/20 08:50:07;;;;;;;7.40;4.18;;;16.00;99.90;;;;;;5028995;28;20078;-76
2021/10/20 08:52:33;;;;;;;7.53;4.30;;;16.10;99.90;;;;;;5031301;28;20022;-77
2021/10/20 08:55:00;;;;;;;8.30;4.00;;;16.20;99.90;;;;;;5037541;28;20022;-77
2021/10/20 08:57:26;;;;;;;9.50;2.88;;;16.30;99.90;;;;;;5037690;28;20002;-76
2021/10/20 08:59:52;;;;;;;5.60;2.38;;;16.70;99.90;;;;;;5036549;28;20026;-77
2021/10/20 09:02:21;;;;;;;2.60;2.38;;;17.00;99.90;;;;;;5037185;28;20032;-77
2021/10/20 09:04:52;;;;;;;2.70;2.38;;;17.30;99.90;;;;;;5020277;28;20029;-76
2021/10/20 09:07:17;;;;;;;3.30;2.22;;;17.40;99.90;;;;;;5016048;28;20026;-76
2021/10/20 09:09:43;;;;;;;6.38;2.10;;;17.60;99.90;;;;;;5030269;28;20072;-76
2021/10/20 09:12:08;;;;;;;2.05;1.67;;;17.80;99.90;;;;;;5012742;28;20025;-77
2021/10/20 09:14:34;;;;;;;2.15;1.73;;;18.10;99.90;;;;;;5013397;28;20034;-75
2021/10/20 09:17:04;;;;;;;2.03;1.90;;;18.30;99.90;;;;;;5015626;28;20038;-74
2021/10/20 09:19:34;;;;;;;4.82;2.20;;;18.30;99.90;;;;;;5029752;28;20030;-75
2021/10/20 09:22:09;;;;;;;3.73;2.47;;;18.40;99.90;;;;;;5016525;28;20018;-74
2021/10/20 09:24:36;;;;;;;3.80;2.03;;;18.40;99.90;;;;;;5018779;28;20281;-74
2021/10/20 09:27:03;;;;;;;2.95;2.22;;;18.50;99.90;;;;;;5009718;28;20101;-74
2021/10/20 09:29:31;;;;;;;2.80;1.70;;;18.60;99.90;;;;;;5013393;28;20030;-74
2021/10/20 09:31:57;;;;;;;4.85;2.15;;;18.70;99.90;;;;;;5013686;28;20478;-74
2021/10/20 09:34:41;;;;;;;3.28;2.28;;;18.70;99.90;;;;;;5008836;28;20032;-73
2021/10/20 09:37:08;;;;;;;6.70;1.95;;;18.60;99.90;;;;;;5013389;28;20037;-73
2021/10/20 09:39:36;;;;;;;4.18;1.77;;;18.70;99.90;;;;;;5015589;28;20033;-73
2021/10/20 09:42:10;;;;;;;7.32;1.95;;;18.70;99.90;;;;;;5033067;28;20093;-73
2021/10/20 09:44:52;;;;;;;3.42;1.80;;;18.90;99.90;;;;;;5007463;28;20036;-75
2021/10/20 09:47:19;;;;;;;2.17;1.98;;;19.00;99.90;;;;;;5016917;28;20497;-74
2021/10/20 09:49:49;;;;;;;4.68;2.15;;;19.10;99.90;;;;;;5015124;28;20029;-74
2021/10/20 09:52:15;;;;;;;2.70;2.03;;;19.00;99.90;;;;;;5014918;28;20441;-75
2021/10/20 09:54:41;;;;;;;3.65;1.92;;;19.20;99.90;;;;;;5014367;28;20033;-76
2021/10/20 09:57:07;;;;;;;4.90;1.77;;;19.40;99.90;;;;;;5013449;28;20032;-73
2021/10/20 09:59:33;;;;;;;4.95;2.22;;;19.60;99.90;;;;;;5017818;28;20035;-73
2021/10/20 10:02:02;;;;;;;3.60;2.30;;;19.80;99.90;;;;;;5016380;28;20442;-74
2021/10/20 10:04:29;;;;;;;2.95;1.92;;;20.00;99.90;;;;;;5033174;28;20032;-72
2021/10/20 10:06:55;;;;;;;2.55;1.95;;;20.10;99.90;;;;;;5025220;28;20025;-73
2021/10/20 10:09:21;;;;;;;3.08;1.52;;;20.40;99.90;;;;;;5024035;28;20030;-73
2021/10/20 10:12:32;;;;;;;6.13;1.90;;;20.40;99.90;;;;;;5017885;28;20478;-74
2021/10/20 10:15:10;;;;;;;3.55;1.92;;;20.60;99.90;;;;;;5001406;28;20081;-74
2021/10/20 10:17:38;;;;;;;2.83;2.45;;;20.70;99.90;;;;;;5028202;28;20041;-72
2021/10/20 10:20:06;;;;;;;2.58;2.00;;;20.80;99.90;;;;;;5015050;28;20096;-74
2021/10/20 10:22:32;;;;;;;2.17;1.98;;;20.80;99.70;;;;;;5016034;28;20035;-75
2021/10/20 10:25:07;;;;;;;6.93;1.98;;;20.90;99.60;;;;;;5014392;28;20033;-75
2021/10/20 10:27:35;;;;;;;1.75;1.65;;;20.90;99.00;;;;;;5015629;28;20018;-75
2021/10/20 10:30:15;;;;;;;4.28;2.03;;;21.00;99.30;;;;;;5015211;28;20609;-74
2021/10/20 10:32:41;;;;;;;3.40;1.85;;;21.00;99.10;;;;;;5018686;28;20022;-75
2021/10/20 10:35:07;;;;;;;2.92;2.15;;;21.00;98.90;;;;;;5017856;28;20041;-73
2021/10/20 10:37:35;;;;;;;3.28;2.03;;;21.00;99.20;;;;;;5018772;28;20081;-74
2021/10/20 10:40:17;;;;;;;2.65;1.50;;;20.90;98.90;;;;;;5016868;28;20026;-74
2021/10/20 10:42:48;;;;;;;5.18;1.63;;;20.90;99.10;;;;;;5018955;28;20029;-75
2021/10/20 10:45:16;;;;;;;2.88;1.98;;;21.10;98.80;;;;;;5026825;28;20278;-75
2021/10/20 10:48:02;;;;;;;3.97;1.75;;;21.10;99.00;;;;;;5028321;28;20046;-75
2021/10/20 10:50:43;;;;;;;3.22;1.90;;;21.30;98.60;;;;;;5031357;28;20021;-75
2021/10/20 10:53:32;;;;;;;3.78;1.27;;;21.40;98.40;;;;;;5029423;28;20048;-75
2021/10/20 10:56:14;;;;;;;2.13;1.85;;;21.40;98.10;;;;;;5025268;28;20029;-74
2021/10/20 10:58:55;;;;;;;3.08;1.38;;;21.40;98.00;;;;;;5029544;28;20119;-76
2021/10/20 11:01:46;;;;;;;1.75;1.65;;;21.30;98.10;;;;;;5030697;28;20026;-76
2021/10/20 11:04:26;;;;;;;2.22;1.90;;;21.40;97.80;;;;;;5031972;28;20033;-75
2021/10/20 11:06:54;;;;;;;2.92;1.60;;;21.30;97.80;;;;;;5031507;28;20018;-76
2021/10/20 11:09:22;;;;;;;4.28;1.77;;;21.20;98.30;;;;;;5030964;28;20030;-75
2021/10/20 11:11:51;;;;;;;2.97;1.55;;;21.10;98.40;;;;;;5034214;28;20012;-76
2021/10/20 11:14:19;;;;;;;3.35;1.90;;;21.20;98.30;;;;;;5031006;28;20080;-75
2021/10/20 11:17:03;;;;;;;2.70;1.60;;;21.30;98.30;;;;;;5030679;28;20034;-75
2021/10/20 11:19:30;;;;;;;3.17;1.65;;;21.20;98.60;;;;;;5024508;28;20030;-74
2021/10/20 11:22:03;;;;;;;1.40;1.30;;;21.10;98.40;;;;;;5028193;28;20139;-74
2021/10/20 11:24:32;;;;;;;5.00;1.50;;;21.10;98.70;;;;;;5028334;28;20114;-76
2021/10/20 11:27:01;;;;;;;3.45;1.58;;;21.30;98.50;;;;;;5028281;28;20030;-75
2021/10/20 11:29:38;;;;;;;1.50;1.40;;;21.40;98.50;;;;;;5028691;28;20529;-74
2021/10/20 11:32:05;;;;;;;2.30;1.88;;;21.50;98.40;;;;;;5030710;28;20018;-75
2021/10/20 11:34:32;;;;;;;2.70;1.85;;;21.70;98.10;;;;;;5031364;28;20030;-75
2021/10/20 11:37:02;;;;;;;2.95;1.38;;;21.80;97.90;;;;;;5030343;28;20018;-75
2021/10/20 11:39:29;;;;;;;2.15;1.52;;;21.80;98.20;;;;;;5029514;28;20053;-75
2021/10/20 11:41:57;;;;;;;3.03;1.50;;;21.90;98.00;;;;;;5028242;28;20084;-75
2021/10/20 11:44:34;;;;;;;2.28;1.90;;;22.00;98.00;;;;;;5027245;28;20033;-75
2021/10/20 11:47:03;;;;;;;2.03;1.83;;;22.00;97.90;;;;;;5030829;23;20053;-73
2021/10/20 11:49:29;;;;;;;2.90;2.00;;;22.10;97.90;;;;;;4998117;28;20021;-73
2021/10/20 11:51:55;;;;;;;1.88;1.17;;;22.40;97.20;;;;;;5016043;28;20025;-77
2021/10/20 11:54:24;;;;;;;1.85;1.30;;;22.50;97.00;;;;;;5016310;28;20057;-73
2021/10/20 11:56:55;;;;;;;3.60;1.30;;;22.60;97.20;;;;;;5014630;28;20033;-75
2021/10/20 11:59:29;;;;;;;2.90;1.33;;;22.80;96.50;;;;;;5017646;28;20109;-75
2021/10/20 12:01:55;;;;;;;4.13;1.45;;;23.00;96.50;;;;;;5002795;28;20135;-73
2021/10/20 12:04:23;;;;;;;1.35;1.05;;;23.10;96.20;;;;;;5016572;28;20022;-73
2021/10/20 12:07:11;;;;;;;2.28;1.50;;;23.30;95.60;;;;;;5015109;28;20045;-75
2021/10/20 12:09:41;;;;;;;1.75;1.40;;;23.10;95.50;;;;;;5016666;28;20026;-73
2021/10/20 12:12:09;;;;;;;5.13;1.63;;;23.10;95.80;;;;;;5015016;28;20104;-73
2021/10/20 12:14:38;;;;;;;2.10;1.75;;;23.00;96.00;;;;;;4998246;28;20133;-73
2021/10/20 12:17:07;;;;;;;1.67;1.30;;;23.20;95.60;;;;;;5014919;28;20547;-73
2021/10/20 12:19:36;;;;;;;2.10;1.60;;;23.20;95.50;;;;;;4996973;28;20037;-73
2021/10/20 12:22:05;;;;;;;1.40;1.30;;;23.20;95.60;;;;;;4997604;28;20098;-75
2021/10/20 12:24:48;;;;;;;1.45;1.35;;;23.40;95.60;;;;;;5016374;28;20041;-79
2021/10/20 12:27:14;;;;;;;2.20;1.45;;;23.30;95.40;;;;;;5016055;28;20014;-74
2021/10/20 12:29:43;;;;;;;1.30;1.20;;;23.30;95.40;;;;;;5020730;28;20025;-75
2021/10/20 12:32:19;;;;;;;1.40;1.17;;;23.20;95.60;;;;;;5012860;28;20025;-73
2021/10/20 12:34:57;;;;;;;3.03;1.35;;;23.00;95.50;;;;;;5015663;28;20505;-73
2021/10/20 12:37:33;;;;;;;2.10;1.40;;;22.90;95.80;;;;;;5015803;28;20347;-76
2021/10/20 12:40:09;;;;;;;1.70;1.35;;;22.90;96.10;;;;;;5015234;28;20026;-73
2021/10/20 12:43:00;;;;;;;1.52;1.40;;;22.80;96.20;;;;;;5014951;28;20058;-74
2021/10/20 12:45:28;;;;;;;;;;;22.70;96.20;;;;;;5012335;28;20042;-74
2021/10/20 12:47:58;;;;;;;4.07;1.73;;;22.70;96.40;;;;;;5015187;28;19920;-75
2021/10/20 12:50:27;;;;;;;1.75;1.42;;;22.40;96.50;;;;;;5014688;28;20030;-75
2021/10/20 12:52:53;;;;;;;2.47;1.30;;;22.50;96.70;;;;;;5014888;28;20061;-75